Time;durP1;ratioP1;P1;durP2;ratioP2;P2;SDS_P1;SDS_P2;PMS_P1;PMS_P2;Temp;Humidity;BMP_temperature;BMP_pressure;BME280_temperature;BME280_humidity;BME280_pressure;Samples;Min_cycle;Max_cycle;Signal;HPM_P1;HPM_P2
2022/03/03 00:03:45;;;;;;;35.08;13.50;;;;;;;;;;10405035;28;20069;-70
2022/03/03 00:08:47;;;;;;;34.90;14.32;;;;;;;;;;10405121;28;20597;-69
2022/03/03 00:13:48;;;;;;;35.03;14.38;;;;;;;;;;10397302;28;20050;-69
2022/03/03 00:18:50;;;;;;;35.63;13.95;;;;;;;;;;10398336;28;20509;-72
2022/03/03 00:23:51;;;;;;;31.58;13.55;;;;;;;;;;10397920;28;20048;-71
2022/03/03 00:28:52;;;;;;;32.97;13.77;;;;;;;;;;10397774;28;20048;-72
2022/03/03 00:33:54;;;;;;;31.55;14.15;;;;;;;;;;10396744;28;20049;-72
2022/03/03 00:38:55;;;;;;;33.38;14.38;;;;;;;;;;10397267;28;20069;-71
2022/03/03 00:43:57;;;;;;;33.03;13.43;;;;;;;;;;10397468;28;20037;-72
2022/03/03 00:48:58;;;;;;;39.03;14.35;;;;;;;;;;10398291;28;20188;-71
2022/03/03 00:54:00;;;;;;;34.25;13.93;;;;;;;;;;10405057;28;20420;-71
2022/03/03 00:59:01;;;;;;;30.83;14.18;;;;;;;;;;10405281;28;20520;-70
2022/03/03 01:04:03;;;;;;;31.90;13.98;;;;;;;;;;10405964;28;20045;-71
2022/03/03 01:09:05;;;;;;;37.25;14.52;;;;;;;;;;10405137;28;20041;-69
2022/03/03 01:14:06;;;;;;;39.17;14.63;;;;;;;;;;10404322;28;20136;-71
2022/03/03 01:19:07;;;;;;;32.58;14.55;;;;;;;;;;10404402;28;20081;-71
2022/03/03 01:24:09;;;;;;;38.70;14.85;;;;;;;;;;10403904;28;20056;-70
2022/03/03 01:29:10;;;;;;;33.33;13.90;;;;;;;;;;10404147;28;20041;-71
2022/03/03 01:34:12;;;;;;;34.95;14.38;;;;;;;;;;10397330;28;20048;-70
2022/03/03 01:39:13;;;;;;;36.88;14.02;;;;;;;;;;10423472;28;20514;-71
2022/03/03 01:44:15;;;;;;;34.58;14.23;;;;;;;;;;10402986;28;20046;-70
2022/03/03 01:49:17;;;;;;;35.72;14.68;;;;;;;;;;10410347;28;20045;-71
2022/03/03 01:54:18;;;;;;;34.13;15.13;;;;;;;;;;10402951;28;20083;-70
2022/03/03 01:59:20;;;;;;;37.80;14.40;;;;;;;;;;10403361;28;20132;-70
2022/03/03 02:04:21;;;;;;;39.95;15.75;;;;;;;;;;10402437;28;20041;-70
2022/03/03 02:09:23;;;;;;;28.42;12.50;;;;;;;;;;10397175;28;20045;-70
2022/03/03 02:14:24;;;;;;;32.50;13.45;;;;;;;;;;10403570;28;20092;-70
2022/03/03 02:19:25;;;;;;;26.98;12.18;;;;;;;;;;10403849;28;20079;-69
2022/03/03 02:24:27;;;;;;;35.75;13.70;;;;;;;;;;10402866;28;20136;-70
2022/03/03 02:29:28;;;;;;;33.35;13.75;;;;;;;;;;10409662;28;20041;-69
2022/03/03 02:34:29;;;;;;;33.97;13.60;;;;;;;;;;10403197;28;20140;-69
2022/03/03 02:39:31;;;;;;;32.47;13.55;;;;;;;;;;10403307;28;20116;-68
2022/03/03 02:44:32;;;;;;;48.45;15.45;;;;;;;;;;10403171;28;20038;-69
2022/03/03 02:49:34;;;;;;;30.90;12.88;;;;;;;;;;10403646;28;20050;-69
2022/03/03 02:54:35;;;;;;;34.08;13.25;;;;;;;;;;10408436;28;20045;-70
2022/03/03 02:59:37;;;;;;;31.27;13.20;;;;;;;;;;10414871;28;20045;-69
2022/03/03 03:04:38;;;;;;;35.70;13.55;;;;;;;;;;10401106;28;20045;-69
2022/03/03 03:09:39;;;;;;;35.00;13.63;;;;;;;;;;10409125;28;20110;-68
2022/03/03 03:14:41;;;;;;;34.22;14.82;;;;;;;;;;10423936;28;20618;-69
2022/03/03 03:19:42;;;;;;;31.48;12.00;;;;;;;;;;10412924;28;20474;-68
2022/03/03 03:24:43;;;;;;;29.23;12.32;;;;;;;;;;10418013;28;20143;-68
2022/03/03 03:29:45;;;;;;;31.35;13.30;;;;;;;;;;10411493;28;20045;-69
2022/03/03 03:34:46;;;;;;;36.45;14.73;;;;;;;;;;10411358;28;20409;-68
2022/03/03 03:39:48;;;;;;;32.30;13.40;;;;;;;;;;10409963;28;20053;-68
2022/03/03 03:44:49;;;;;;;38.85;14.93;;;;;;;;;;10395733;28;20465;-69
2022/03/03 03:49:50;;;;;;;38.63;12.70;;;;;;;;;;10409079;28;20138;-68
2022/03/03 03:54:52;;;;;;;38.58;15.77;;;;;;;;;;10405965;28;20045;-69
2022/03/03 03:59:53;;;;;;;35.70;14.73;;;;;;;;;;10405249;28;20079;-69
2022/03/03 04:04:55;;;;;;;37.63;16.05;;;;;;;;;;10388324;28;20046;-68
2022/03/03 04:09:57;;;;;;;38.72;15.07;;;;;;;;;;10408182;28;20124;-69
2022/03/03 04:14:58;;;;;;;45.60;16.23;;;;;;;;;;10403473;28;20053;-68
2022/03/03 04:20:00;;;;;;;34.03;14.60;;;;;;;;;;10394776;28;20049;-68
2022/03/03 04:25:03;;;;;;;38.25;13.90;;;;;;;;;;10397813;28;20038;-67
2022/03/03 04:30:07;;;;;;;32.50;14.10;;;;;;;;;;10403490;28;20099;-68
2022/03/03 04:35:09;;;;;;;41.92;15.23;;;;;;;;;;10404277;28;20111;-68
2022/03/03 04:40:11;;;;;;;37.95;14.20;;;;;;;;;;10402492;28;20053;-68
2022/03/03 04:45:12;;;;;;;35.20;13.73;;;;;;;;;;10410059;28;20041;-69
2022/03/03 04:50:13;;;;;;;32.65;14.15;;;;;;;;;;10403197;28;20048;-68
2022/03/03 04:55:15;;;;;;;40.75;15.60;;;;;;;;;;10389255;28;20042;-68
2022/03/03 05:00:17;;;;;;;42.58;15.45;;;;;;;;;;10409756;28;20053;-66
2022/03/03 05:05:18;;;;;;;42.33;14.52;;;;;;;;;;10401831;28;20120;-68
2022/03/03 05:10:20;;;;;;;34.50;13.88;;;;;;;;;;10401022;28;20053;-67
2022/03/03 05:15:21;;;;;;;41.40;14.88;;;;;;;;;;10402796;28;20046;-68
2022/03/03 05:20:28;;;;;;;35.33;14.68;;;;;;;;;;10401908;28;20049;-68
2022/03/03 05:25:29;;;;;;;41.05;15.50;;;;;;;;;;10401634;28;20499;-68
2022/03/03 05:30:30;;;;;;;38.33;14.95;;;;;;;;;;10401907;28;20059;-68
2022/03/03 05:35:32;;;;;;;35.63;14.68;;;;;;;;;;10400136;28;20060;-70
2022/03/03 05:40:34;;;;;;;41.42;15.95;;;;;;;;;;10402408;28;20045;-70
2022/03/03 05:45:36;;;;;;;39.22;14.48;;;;;;;;;;10399408;28;20124;-68
2022/03/03 05:50:37;;;;;;;41.50;16.92;;;;;;;;;;10401271;28;20060;-69
2022/03/03 05:55:50;;;;;;;40.42;16.20;;;;;;;;;;10394462;28;20138;-68
2022/03/03 06:00:58;;;;;;;40.42;16.17;;;;;;;;;;10408973;28;20076;-69
2022/03/03 06:06:15;;;;;;;41.38;16.23;;;;;;;;;;10400157;28;20512;-69
2022/03/03 06:11:20;;;;;;;44.97;16.98;;;;;;;;;;10401646;28;20060;-68
2022/03/03 06:16:22;;;;;;;42.45;17.45;;;;;;;;;;10401188;28;20067;-68
2022/03/03 06:21:23;;;;;;;49.55;16.55;;;;;;;;;;10401197;28;20049;-69
2022/03/03 06:26:25;;;;;;;37.28;16.08;;;;;;;;;;10399711;28;20607;-69
2022/03/03 06:31:27;;;;;;;50.20;17.65;;;;;;;;;;10395970;28;20053;-68
2022/03/03 06:36:28;;;;;;;43.88;17.60;;;;;;;;;;10398247;28;20045;-70
2022/03/03 06:41:30;;;;;;;48.83;19.98;;;;;;;;;;10400786;28;20045;-70
2022/03/03 06:46:32;;;;;;;45.42;17.13;;;;;;;;;;10415813;28;20040;-70
2022/03/03 06:51:40;;;;;;;37.17;14.40;;;;;;;;;;10401325;28;20042;-66
2022/03/03 06:56:52;;;;;;;51.47;18.70;;;;;;;;;;10392679;28;20049;-70
2022/03/03 07:01:54;;;;;;;44.30;17.02;;;;;;;;;;10402576;28;20045;-67
2022/03/03 07:06:56;;;;;;;52.80;20.25;;;;;;;;;;10398292;28;20053;-67
2022/03/03 07:11:58;;;;;;;41.05;17.77;;;;;;;;;;10398020;28;20064;-67
2022/03/03 07:17:01;;;;;;;44.40;17.55;;;;;;;;;;10397951;28;20408;-67
2022/03/03 07:22:09;;;;;;;58.30;19.60;;;;;;;;;;10411168;28;20699;-68
2022/03/03 07:27:16;;;;;;;53.58;19.83;;;;;;;;;;10405152;28;20033;-70
2022/03/03 07:32:20;;;;;;;50.10;20.02;;;;;;;;;;10397241;28;20058;-70
2022/03/03 07:37:24;;;;;;;56.78;20.55;;;;;;;;;;10405923;28;20049;-69
2022/03/03 07:42:26;;;;;;;56.15;21.25;;;;;;;;;;10399249;28;20069;-70
2022/03/03 07:47:28;;;;;;;54.40;20.27;;;;;;;;;;10399151;28;20042;-70
2022/03/03 07:52:29;;;;;;;59.92;23.58;;;;;;;;;;10394968;28;20136;-71
2022/03/03 07:57:35;;;;;;;72.70;25.83;;;;;;;;;;10389417;28;20061;-71
2022/03/03 08:02:39;;;;;;;63.13;24.38;;;;;;;;;;10391275;28;20049;-72
2022/03/03 08:07:44;;;;;;;58.17;23.02;;;;;;;;;;10395365;28;20401;-73
2022/03/03 08:12:47;;;;;;;52.92;21.27;;;;;;;;;;10403094;28;20045;-73
2022/03/03 08:17:51;;;;;;;47.13;21.85;;;;;;;;;;10401866;28;20053;-71
2022/03/03 08:22:53;;;;;;;49.47;22.30;;;;;;;;;;10402452;28;20059;-72
2022/03/03 08:27:55;;;;;;;44.78;20.98;;;;;;;;;;10408904;28;20045;-72
2022/03/03 08:33:13;;;;;;;52.78;22.52;;;;;;;;;;10397379;28;20096;-72
2022/03/03 08:38:23;;;;;;;46.30;21.13;;;;;;;;;;10415904;28;20049;-71
2022/03/03 08:43:26;;;;;;;50.45;22.48;;;;;;;;;;10396006;28;20049;-73
2022/03/03 08:48:30;;;;;;;46.97;21.25;;;;;;;;;;10396094;28;20053;-73
2022/03/03 08:53:32;;;;;;;50.17;23.10;;;;;;;;;;10393251;28;20049;-73
2022/03/03 08:58:34;;;;;;;42.67;20.60;;;;;;;;;;10378817;28;20045;-73
2022/03/03 09:03:35;;;;;;;53.47;24.35;;;;;;;;;;10385211;28;20037;-72
2022/03/03 09:08:40;;;;;;;49.33;23.10;;;;;;;;;;10395469;28;20068;-72
2022/03/03 09:13:41;;;;;;;54.72;22.25;;;;;;;;;;10429211;28;20500;-73
2022/03/03 09:18:48;;;;;;;53.97;22.73;;;;;;;;;;10402036;28;20069;-73
2022/03/03 09:23:49;;;;;;;53.75;22.30;;;;;;;;;;10427105;28;20048;-72
2022/03/03 09:28:50;;;;;;;46.45;21.65;;;;;;;;;;10382983;28;20696;-73
2022/03/03 09:33:52;;;;;;;50.25;23.10;;;;;;;;;;10400606;28;20048;-73
2022/03/03 09:38:53;;;;;;;55.65;23.60;;;;;;;;;;10405459;28;20052;-72
2022/03/03 09:43:56;;;;;;;50.63;22.88;;;;;;;;;;10391513;28;20050;-71
2022/03/03 09:48:58;;;;;;;54.10;23.30;;;;;;;;;;10384379;28;20216;-72
2022/03/03 09:53:59;;;;;;;47.28;21.67;;;;;;;;;;10397500;28;20049;-70
2022/03/03 09:59:01;;;;;;;48.08;22.30;;;;;;;;;;10386689;28;20038;-71
2022/03/03 10:04:14;;;;;;;46.75;21.67;;;;;;;;;;10428180;28;20394;-71
2022/03/03 10:09:16;;;;;;;45.83;22.02;;;;;;;;;;10405266;28;20056;-71
2022/03/03 10:14:25;;;;;;;48.17;21.52;;;;;;;;;;10400426;28;20053;-71
2022/03/03 10:19:27;;;;;;;49.78;22.10;;;;;;;;;;10400103;28;20052;-71
2022/03/03 10:24:29;;;;;;;45.50;21.23;;;;;;;;;;10392537;28;20046;-72
2022/03/03 10:29:31;;;;;;;45.60;20.00;;;;;;;;;;10383501;28;20040;-71
2022/03/03 10:34:34;;;;;;;40.50;19.05;;;;;;;;;;10375669;28;20497;-71
2022/03/03 10:39:38;;;;;;;41.30;18.88;;;;;;;;;;10388670;28;20041;-72
2022/03/03 10:44:40;;;;;;;38.42;19.67;;;;;;;;;;10396744;28;20064;-72
2022/03/03 10:49:47;;;;;;;41.97;19.38;;;;;;;;;;10382806;28;20092;-72
2022/03/03 10:54:52;;;;;;;34.92;18.90;;;;;;;;;;10392042;28;20049;-72
2022/03/03 10:59:54;;;;;;;37.13;18.35;;;;;;;;;;10368796;28;20068;-72
2022/03/03 11:04:58;;;;;;;39.45;18.50;;;;;;;;;;10389334;28;20122;-74
2022/03/03 11:10:03;;;;;;;37.65;18.52;;;;;;;;;;10408738;28;20044;-73
2022/03/03 11:15:07;;;;;;;37.65;18.60;;;;;;;;;;10407538;28;20045;-73
2022/03/03 11:20:12;;;;;;;39.75;17.02;;;;;;;;;;10405842;28;20059;-73
2022/03/03 11:25:16;;;;;;;36.35;17.50;;;;;;;;;;10444026;28;20076;-73
2022/03/03 11:30:18;;;;;;;42.92;18.98;;;;;;;;;;10399785;28;20041;-73
2022/03/03 11:35:26;;;;;;;37.55;16.05;;;;;;;;;;10404068;28;20127;-73
2022/03/03 11:40:35;;;;;;;40.38;18.65;;;;;;;;;;10394515;28;20052;-73
2022/03/03 11:45:39;;;;;;;35.40;16.77;;;;;;;;;;10437995;28;20069;-72
2022/03/03 11:50:43;;;;;;;33.17;16.23;;;;;;;;;;10398060;28;20053;-72
2022/03/03 11:55:48;;;;;;;34.38;15.73;;;;;;;;;;10396552;28;20049;-72
2022/03/03 12:00:59;;;;;;;37.55;16.65;;;;;;;;;;10402652;28;20744;-71
2022/03/03 12:06:05;;;;;;;35.90;16.63;;;;;;;;;;10410616;28;20045;-72
2022/03/03 12:11:06;;;;;;;39.80;17.98;;;;;;;;;;10397191;28;20072;-72
2022/03/03 12:16:26;;;;;;;35.25;16.35;;;;;;;;;;10403818;28;20476;-71
2022/03/03 12:21:40;;;;;;;33.63;15.98;;;;;;;;;;10406461;28;20053;-71
2022/03/03 12:26:56;;;;;;;33.97;13.50;;;;;;;;;;10397415;28;20042;-71
2022/03/03 12:32:18;;;;;;;28.70;12.38;;;;;;;;;;10384444;28;20496;-72
2022/03/03 12:37:20;;;;;;;28.83;13.55;;;;;;;;;;10395499;28;20496;-71
2022/03/03 12:42:25;;;;;;;29.23;11.40;;;;;;;;;;10397488;28;20473;-72
2022/03/03 12:47:30;;;;;;;27.38;11.35;;;;;;;;;;10394921;28;20440;-71
2022/03/03 12:52:32;;;;;;;21.02;9.48;;;;;;;;;;10410010;28;20072;-71
2022/03/03 12:57:35;;;;;;;22.90;9.80;;;;;;;;;;10404248;28;20120;-72
2022/03/03 13:02:51;;;;;;;21.13;8.18;;;;;;;;;;10403862;28;20053;-71
2022/03/03 13:07:52;;;;;;;14.50;6.35;;;;;;;;;;10403766;28;20058;-71
2022/03/03 13:12:55;;;;;;;14.40;5.35;;;;;;;;;;10411518;28;20374;-71
2022/03/03 13:18:08;;;;;;;14.48;5.85;;;;;;;;;;10401490;28;20053;-71
2022/03/03 13:23:10;;;;;;;12.48;5.15;;;;;;;;;;10403645;28;20041;-71
2022/03/03 13:28:23;;;;;;;14.48;4.90;;;;;;;;;;10400915;28;20135;-72
2022/03/03 13:33:43;;;;;;;11.50;4.63;;;;;;;;;;10396648;28;20084;-71
2022/03/03 13:38:45;;;;;;;17.25;4.28;;;;;;;;;;10396153;28;20132;-71
2022/03/03 13:43:47;;;;;;;12.88;5.18;;;;;;;;;;10421875;28;20052;-71
2022/03/03 13:48:48;;;;;;;16.40;6.20;;;;;;;;;;10429953;28;20049;-71
2022/03/03 13:54:00;;;;;;;17.00;7.35;;;;;;;;;;10416317;28;20045;-71
2022/03/03 13:59:04;;;;;;;19.42;8.90;;;;;;;;;;10400774;28;20539;-71
2022/03/03 14:04:09;;;;;;;16.80;6.65;;;;;;;;;;10412565;28;20624;-71
2022/03/03 14:09:31;;;;;;;14.90;5.93;;;;;;;;;;10417041;28;20102;-71
2022/03/03 14:14:32;;;;;;;12.57;5.50;;;;;;;;;;10390324;28;20501;-71
2022/03/03 14:19:34;;;;;;;11.07;4.78;;;;;;;;;;10391050;28;20042;-71
2022/03/03 14:24:38;;;;;;;13.05;5.63;;;;;;;;;;10403032;28;20041;-70
2022/03/03 14:29:39;;;;;;;15.45;7.03;;;;;;;;;;10394363;28;20041;-70
2022/03/03 14:34:41;;;;;;;12.93;6.10;;;;;;;;;;10432864;28;20049;-71
2022/03/03 14:39:42;;;;;;;14.02;6.70;;;;;;;;;;10414649;28;20576;-71
2022/03/03 14:44:44;;;;;;;15.20;6.55;;;;;;;;;;10428261;28;20045;-71
2022/03/03 14:49:45;;;;;;;13.45;5.80;;;;;;;;;;10408682;28;20049;-70
2022/03/03 14:54:47;;;;;;;16.45;7.30;;;;;;;;;;10414565;28;20051;-70
2022/03/03 14:59:48;;;;;;;12.85;5.53;;;;;;;;;;10415893;28;20083;-71
2022/03/03 15:04:49;;;;;;;14.50;6.10;;;;;;;;;;10431318;28;20037;-71
2022/03/03 15:09:51;;;;;;;16.63;7.45;;;;;;;;;;10412212;28;20046;-70
2022/03/03 15:14:52;;;;;;;24.40;8.13;;;;;;;;;;10407460;28;20052;-71
2022/03/03 15:19:54;;;;;;;18.20;7.57;;;;;;;;;;10414626;28;20057;-72
2022/03/03 15:24:55;;;;;;;20.08;8.13;;;;;;;;;;10391959;28;20478;-70
2022/03/03 15:29:59;;;;;;;21.55;7.90;;;;;;;;;;10385631;28;20064;-71
2022/03/03 15:40:21;;;;;;;;;;;;;;;;;;10429634;28;20060;-72
2022/03/03 15:45:22;;;;;;;25.33;9.35;;;;;;;;;;10393152;28;19935;-71
2022/03/03 15:50:24;;;;;;;24.02;9.57;;;;;;;;;;10396446;28;20489;-70
2022/03/03 15:55:26;;;;;;;27.00;9.80;;;;;;;;;;10391761;28;20129;-71
2022/03/03 16:00:27;;;;;;;25.85;9.98;;;;;;;;;;10393295;28;20050;-72
2022/03/03 16:05:30;;;;;;;26.35;10.52;;;;;;;;;;10398056;28;20489;-71
2022/03/03 16:10:31;;;;;;;19.85;8.65;;;;;;;;;;10404237;28;20411;-70
2022/03/03 16:15:32;;;;;;;21.30;9.07;;;;;;;;;;10402714;28;20753;-71
2022/03/03 16:20:34;;;;;;;24.90;9.20;;;;;;;;;;10408022;28;20142;-70
2022/03/03 16:25:35;;;;;;;20.40;8.77;;;;;;;;;;10421782;28;20398;-71
2022/03/03 16:30:37;;;;;;;21.70;9.48;;;;;;;;;;10412921;28;20511;-70
2022/03/03 16:35:39;;;;;;;25.80;9.10;;;;;;;;;;10406931;28;20049;-70
2022/03/03 16:40:40;;;;;;;24.58;8.55;;;;;;;;;;10406667;28;20120;-70
2022/03/03 16:45:42;;;;;;;18.33;7.90;;;;;;;;;;10406342;28;20054;-70
2022/03/03 16:50:43;;;;;;;20.15;9.10;;;;;;;;;;10411977;28;20045;-71
2022/03/03 16:55:44;;;;;;;23.40;9.15;;;;;;;;;;10430255;28;20063;-70
2022/03/03 17:00:46;;;;;;;20.88;8.02;;;;;;;;;;10432180;28;20041;-71
2022/03/03 17:05:47;;;;;;;21.05;8.23;;;;;;;;;;10427087;28;20045;-71
2022/03/03 17:10:49;;;;;;;18.52;7.55;;;;;;;;;;10431612;28;20052;-71
2022/03/03 17:15:51;;;;;;;20.83;9.13;;;;;;;;;;10407859;28;20056;-70
2022/03/03 17:20:52;;;;;;;18.48;7.63;;;;;;;;;;10393278;28;20041;-70
2022/03/03 17:25:54;;;;;;;23.65;9.07;;;;;;;;;;10397975;28;20058;-70
2022/03/03 17:30:56;;;;;;;26.92;10.35;;;;;;;;;;10396783;28;20491;-70
2022/03/03 17:35:57;;;;;;;21.63;9.55;;;;;;;;;;10401679;28;20045;-70
2022/03/03 17:40:59;;;;;;;30.73;9.50;;;;;;;;;;10402201;28;20077;-70
2022/03/03 17:46:00;;;;;;;24.00;9.15;;;;;;;;;;10405090;28;20046;-70
2022/03/03 17:51:04;;;;;;;22.67;9.45;;;;;;;;;;10405944;28;20769;-70
2022/03/03 17:56:06;;;;;;;24.20;9.73;;;;;;;;;;10394645;28;20093;-70
2022/03/03 18:01:07;;;;;;;21.67;9.45;;;;;;;;;;10410510;28;20087;-71
2022/03/03 18:06:09;;;;;;;20.17;8.38;;;;;;;;;;10402119;28;20049;-70
2022/03/03 18:11:10;;;;;;;23.75;9.43;;;;;;;;;;10406789;28;20051;-71
2022/03/03 18:16:12;;;;;;;18.45;6.75;;;;;;;;;;10396028;28;20046;-69
2022/03/03 18:21:13;;;;;;;13.48;5.70;;;;;;;;;;10397338;28;20049;-70
2022/03/03 18:26:15;;;;;;;13.85;5.72;;;;;;;;;;10393337;28;20456;-70
2022/03/03 18:31:16;;;;;;;14.55;5.25;;;;;;;;;;10400294;28;20045;-69
2022/03/03 18:36:21;;;;;;;13.73;5.03;;;;;;;;;;10379826;28;20133;-69
2022/03/03 18:41:23;;;;;;;13.18;4.68;;;;;;;;;;10384823;28;20050;-70
2022/03/03 18:46:24;;;;;;;12.27;4.38;;;;;;;;;;10382773;28;20450;-71
2022/03/03 18:51:26;;;;;;;17.27;5.18;;;;;;;;;;10397416;28;20045;-70
2022/03/03 18:56:28;;;;;;;18.20;5.40;;;;;;;;;;10380746;28;20753;-71
2022/03/03 19:01:29;;;;;;;12.30;4.00;;;;;;;;;;10397832;28;20056;-71
2022/03/03 19:06:31;;;;;;;12.95;4.35;;;;;;;;;;10396161;28;20049;-70
2022/03/03 19:11:34;;;;;;;14.25;5.45;;;;;;;;;;10390162;28;20038;-70
2022/03/03 19:16:35;;;;;;;13.40;5.60;;;;;;;;;;10398801;28;20500;-70
2022/03/03 19:21:37;;;;;;;15.07;6.90;;;;;;;;;;10417516;28;20037;-70
2022/03/03 19:26:39;;;;;;;14.15;5.40;;;;;;;;;;10393305;28;20041;-70
2022/03/03 19:31:40;;;;;;;16.23;6.38;;;;;;;;;;10383130;28;20064;-70
2022/03/03 19:36:43;;;;;;;14.68;6.07;;;;;;;;;;10405880;28;20084;-70
2022/03/03 19:41:46;;;;;;;15.30;6.32;;;;;;;;;;10398502;28;20085;-70
2022/03/03 19:46:48;;;;;;;13.30;5.47;;;;;;;;;;10391885;28;20041;-70
2022/03/03 19:51:49;;;;;;;17.50;6.05;;;;;;;;;;10397403;28;20417;-70
2022/03/03 19:56:51;;;;;;;17.08;5.97;;;;;;;;;;10398211;28;20059;-71
2022/03/03 20:01:53;;;;;;;16.92;4.72;;;;;;;;;;10398052;28;20041;-70
2022/03/03 20:06:55;;;;;;;10.50;4.00;;;;;;;;;;10398292;28;20053;-70
2022/03/03 20:11:57;;;;;;;12.50;4.80;;;;;;;;;;10429735;28;20046;-70
2022/03/03 20:16:59;;;;;;;11.70;4.70;;;;;;;;;;10397731;28;20056;-69
2022/03/03 20:22:02;;;;;;;10.73;4.60;;;;;;;;;;10391928;28;20050;-70
2022/03/03 20:27:03;;;;;;;13.20;5.15;;;;;;;;;;10388236;28;20049;-70
2022/03/03 20:32:05;;;;;;;12.00;4.45;;;;;;;;;;10396365;28;20754;-70
2022/03/03 20:37:07;;;;;;;17.63;5.25;;;;;;;;;;10404007;28;20431;-70
2022/03/03 20:42:08;;;;;;;10.35;4.30;;;;;;;;;;10354860;28;20058;-70
2022/03/03 20:47:09;;;;;;;15.85;6.45;;;;;;;;;;10433718;28;20036;-70
2022/03/03 20:52:11;;;;;;;13.27;5.28;;;;;;;;;;10438705;28;20037;-70
2022/03/03 20:57:12;;;;;;;14.27;5.60;;;;;;;;;;10441719;28;20407;-70
2022/03/03 21:02:14;;;;;;;13.15;4.53;;;;;;;;;;10438337;28;20690;-70
2022/03/03 21:07:18;;;;;;;11.18;3.97;;;;;;;;;;10440308;28;20049;-70
2022/03/03 21:12:40;;;;;;;18.42;4.47;;;;;;;;;;10441573;28;20044;-70
2022/03/03 21:17:41;;;;;;;10.98;4.55;;;;;;;;;;10445545;28;20049;-71
2022/03/03 21:22:43;;;;;;;11.82;4.32;;;;;;;;;;10445798;28;20053;-71
2022/03/03 21:27:44;;;;;;;12.52;4.60;;;;;;;;;;10446327;28;20053;-71
2022/03/03 21:32:46;;;;;;;32.40;11.05;;;;;;;;;;10441046;28;20048;-71
2022/03/03 21:37:47;;;;;;;22.02;7.35;;;;;;;;;;10447234;28;20052;-71
2022/03/03 21:42:48;;;;;;;38.38;9.77;;;;;;;;;;10445052;28;20041;-71
2022/03/03 21:47:50;;;;;;;57.05;16.00;;;;;;;;;;10447887;28;20623;-70
2022/03/03 21:52:53;;;;;;;49.45;14.93;;;;;;;;;;10441628;28;20578;-70
2022/03/03 21:57:58;;;;;;;36.42;14.07;;;;;;;;;;10445784;28;20052;-71
2022/03/03 22:03:00;;;;;;;26.83;10.07;;;;;;;;;;10445524;28;20428;-70
2022/03/03 22:08:02;;;;;;;30.40;10.48;;;;;;;;;;10444074;28;20119;-70
2022/03/03 22:13:03;;;;;;;20.33;8.48;;;;;;;;;;10441636;28;20424;-71
2022/03/03 22:18:05;;;;;;;21.52;8.23;;;;;;;;;;10441960;28;20075;-71
2022/03/03 22:23:07;;;;;;;21.63;8.93;;;;;;;;;;10441909;28;20053;-71
2022/03/03 22:28:08;;;;;;;18.92;6.78;;;;;;;;;;10441004;28;20051;-71
2022/03/03 22:33:09;;;;;;;14.30;6.53;;;;;;;;;;10440746;28;20088;-71
2022/03/03 22:38:13;;;;;;;17.85;7.38;;;;;;;;;;10440267;28;20055;-70
2022/03/03 22:43:14;;;;;;;23.38;8.57;;;;;;;;;;10439837;28;20059;-70
2022/03/03 22:48:16;;;;;;;23.92;7.30;;;;;;;;;;10440197;28;20485;-70
2022/03/03 22:53:18;;;;;;;39.00;12.80;;;;;;;;;;10438972;28;20071;-71
2022/03/03 22:58:19;;;;;;;22.88;8.68;;;;;;;;;;10439880;28;20048;-70
2022/03/03 23:08:41;;;;;;;23.60;8.48;;;;;;;;;;10439028;28;20452;-71
2022/03/03 23:13:42;;;;;;;23.08;9.40;;;;;;;;;;10438500;28;20049;-71
2022/03/03 23:18:44;;;;;;;18.00;6.93;;;;;;;;;;10438448;28;20415;-71
2022/03/03 23:23:46;;;;;;;14.88;5.50;;;;;;;;;;10437663;28;20566;-70
2022/03/03 23:28:48;;;;;;;18.65;6.70;;;;;;;;;;10437957;28;20086;-71
2022/03/03 23:33:49;;;;;;;18.85;6.10;;;;;;;;;;10437672;28;20611;-71
2022/03/03 23:38:51;;;;;;;20.70;6.53;;;;;;;;;;10438196;28;20045;-71
2022/03/03 23:43:52;;;;;;;18.27;6.75;;;;;;;;;;10437532;28;20139;-71
2022/03/03 23:48:54;;;;;;;12.68;5.80;;;;;;;;;;10438262;28;20064;-71
2022/03/03 23:53:55;;;;;;;19.85;7.47;;;;;;;;;;10438014;28;20041;-71
2022/03/03 23:58:57;;;;;;;16.58;6.13;;;;;;;;;;10438162;28;20059;-70
